14 août 2022

Temps Code Temps Temp. Vue Base cloud Vent METAR/SPECI
07:00
M
21 °C 10 km+ 2.600 ft 260° 260° 4 kt METAR LFBA 140500Z AUTO 26004KT 9999 OVC026/// //////CB 21/19 Q1011
06:30
M
21 °C 10 km+ 2.700 ft 220° 220° 3 kt METAR LFBA 140430Z AUTO 22003KT 190V260 9999 OVC027/// ///CB 21/19 Q1011
06:00
M
21 °C 10 km+ 2.400 ft Var Var 3 kt METAR LFBA 140400Z AUTO VRB03KT 9999 OVC024/// ///CB 21/19 Q1011
05:30
M
21 °C 10 km+ 1.800 ft 280° 280° 3 kt METAR LFBA 140330Z AUTO 28003KT 9999 OVC018 21/19 Q1011
05:00
M
21 °C 10 km+ 1.200 ft 300° 300° 5 kt METAR LFBA 140300Z AUTO 30005KT 270V340 9999 OVC012 21/19 Q1011
04:30
M
21 °C 10 km+ 1.300 ft 280° 280° 9 kt METAR LFBA 140230Z AUTO 28009KT 240V310 9999 OVC013 21/19 Q1011
04:00
M
22 °C 10 km+ 1.300 ft 270° 270° 9 kt METAR LFBA 140200Z AUTO 27009KT 9999 BKN013 OVC150 22/19 Q1010
03:30
M
22 °C 10 km+ 1.400 ft 280° 280° 9 kt METAR LFBA 140130Z AUTO 28009KT 9999 OVC014 22/20 Q1010
03:00
V
22 °C 10 km+ 16.000 ft 270° 270° 8 kt METAR LFBA 140100Z AUTO 27008KT 9999 SCT015 OVC160 22/20 Q1009
02:30
M
22 °C 10 km+ 1.400 ft 300° 300° 6 kt METAR LFBA 140030Z AUTO 30006KT 9999 BKN014 BKN160 BKN200 22/20 Q1009
02:00
M
22 °C 10 km+ 1.500 ft 300° 300° 5 kt METAR LFBA 140000Z AUTO 30005KT 270V350 9999 OVC015 22/20 Q1010
01:30
V
23 °C 10 km+ 13.000 ft 270° 270° 3 kt METAR LFBA 132330Z AUTO 27003KT 250V320 9999 FEW017/// BKN130/// BKN170/// //////CB 23/20 Q1010
01:00
V
23 °C 10 km+ - 270° 270° 9 kt METAR LFBA 132300Z AUTO 27009KT 9999 //////CB 23/21 Q1009
00:30
V
24 °C 10 km+ - 280° 280° 12 kt METAR LFBA 132230Z AUTO 28012KT 9999 VCTS ///CB 24/21 Q1009
00:00
V
24 °C 10 km+ - Var Var 2 kt METAR LFBA 132200Z AUTO VRB02KT 9999 ///CB 24/21 Q1009

13 août 2022

Temps Code Temps Temp. Vue Base cloud Vent METAR/SPECI
23:30
V
24 °C 10 km+ - 130° 130° 5 kt METAR LFBA 132130Z AUTO 13005KT 9999 ///CB 24/21 Q1009
23:00
V
24 °C 10 km+ - 320° 320° 6 kt METAR LFBA 132100Z AUTO 32006KT 280V340 9999 //////CB 24/21 Q1010
22:30
V
27 °C 10 km+ - 280° 280° 12 kt METAR LFBA 132030Z AUTO 28012KT 9999 VCTS ///CB 27/21 Q1010
22:00
V
31 °C 10 km+ - 280° 280° 11 kt METAR LFBA 132000Z AUTO 28011KT 9999 VCTS ///CB 31/19 Q1009 TEMPO 25020G30KT 4000 TSRA
21:30
I
30 °C 3,9 km - 240° 240° 2 kt METAR LFBA 131930Z AUTO 24002KT 8000 3900 //////CB 30/19 Q1008 TEMPO 25020G30KT 4000 TSRA
21:00
V
31 °C 10 km+ - Var 000° 0 kt METAR LFBA 131900Z AUTO 00000KT 9999 //////CB 31/18 Q1008 TEMPO 25020G30KT 4000 TSRA
20:30
V
33 °C 10 km+ - Var Var 2 kt METAR LFBA 131830Z AUTO VRB02KT 9999 ///TCU 33/18 Q1008 TEMPO 25020G30KT 4000 TSRA SCT050CB
20:00
V
34 °C 10 km+ - Var Var 2 kt METAR LFBA 131800Z AUTO VRB02KT CAVOK 34/18 Q1008 TEMPO 25020G30KT 4000 TSRA SCT050CB
19:30
V
35 °C 10 km+ - Var Var 2 kt METAR LFBA 131730Z AUTO VRB02KT CAVOK 35/18 Q1008 TEMPO 25020G30KT 4000 TSRA SCT050CB
19:00
V
35 °C 10 km+ - Var Var 1 kt METAR LFBA 131700Z AUTO VRB01KT CAVOK 35/18 Q1008 NOSIG
18:30
V
35 °C 10 km+ - Var Var 2 kt METAR LFBA 131630Z AUTO VRB02KT CAVOK 35/18 Q1008 NOSIG
18:00
V
35 °C 10 km+ - Var Var 3 kt METAR LFBA 131600Z AUTO VRB03KT CAVOK 35/18 Q1009 NOSIG
17:30
V
34 °C 10 km+ - 010° 010° 5 kt METAR LFBA 131530Z AUTO 01005KT 330V040 CAVOK 34/18 Q1009 NOSIG
17:00
V
34 °C 10 km+ - 350° 350° 4 kt METAR LFBA 131500Z AUTO 35004KT 290V030 CAVOK 34/18 Q1009 NOSIG
16:30
V
34 °C 10 km+ - 350° 350° 5 kt METAR LFBA 131430Z AUTO 35005KT 300V050 CAVOK 34/18 Q1010 NOSIG
16:00
V
34 °C 10 km+ - Var Var 3 kt METAR LFBA 131400Z AUTO VRB03KT CAVOK 34/19 Q1010 NOSIG
15:30
V
33 °C 10 km+ - Var Var 2 kt METAR LFBA 131330Z AUTO VRB02KT CAVOK 33/18 Q1010 NOSIG
15:00
V
33 °C 10 km+ - Var Var 3 kt METAR LFBA 131300Z AUTO VRB03KT CAVOK 33/18 Q1011 NOSIG
14:30
V
32 °C 10 km+ - 030° 030° 3 kt METAR LFBA 131230Z AUTO 03003KT 310V120 CAVOK 32/18 Q1011 NOSIG
14:00
V
30 °C 10 km+ - 290° 290° 6 kt METAR LFBA 131200Z AUTO 29006KT 220V350 CAVOK 30/18 Q1011 NOSIG
13:30
V
30 °C 10 km+ - Var Var 3 kt METAR LFBA 131130Z AUTO VRB03KT CAVOK 30/18 Q1012 NOSIG
13:00
V
29 °C 10 km+ - Var Var 3 kt METAR LFBA 131100Z AUTO VRB03KT CAVOK 29/19 Q1012 NOSIG
12:30
V
29 °C 10 km+ - Var Var 2 kt METAR LFBA 131030Z AUTO VRB02KT CAVOK 29/18 Q1012 NOSIG
12:00
V
28 °C 10 km+ - Var Var 2 kt METAR LFBA 131000Z AUTO VRB02KT CAVOK 28/18 Q1013 NOSIG
11:30
V
27 °C 10 km+ - 050° 050° 4 kt METAR LFBA 130930Z AUTO 05004KT 360V100 CAVOK 27/19 Q1013 NOSIG
11:00
V
26 °C 10 km+ - Var Var 3 kt METAR LFBA 130900Z AUTO VRB03KT 9999 SCT023 26/19 Q1013 NOSIG
10:30
M
24 °C 10 km+ 2.100 ft 270° 270° 3 kt METAR LFBA 130830Z AUTO 27003KT 230V330 9999 OVC021 24/19 Q1013 NOSIG
10:00
M
24 °C 10 km+ 1.900 ft 240° 240° 3 kt METAR LFBA 130800Z AUTO 24003KT 190V270 9999 OVC019 24/19 Q1013 NOSIG
09:30
M
24 °C 10 km+ 1.800 ft Var Var 2 kt METAR LFBA 130730Z AUTO VRB02KT 9999 BKN018 24/19 Q1013 NOSIG
09:00
M
23 °C 10 km+ 1.700 ft 300° 300° 4 kt METAR LFBA 130700Z AUTO 30004KT 250V330 9999 OVC017 23/19 Q1013 NOSIG
08:30
M
22 °C 10 km+ 1.700 ft 300° 300° 4 kt METAR LFBA 130630Z AUTO 30004KT 9999 BKN017 22/19 Q1013 NOSIG
08:00
M
22 °C 10 km+ 1.700 ft 280° 280° 5 kt METAR LFBA 130600Z AUTO 28005KT 250V320 9999 BKN017 22/19 Q1012 NOSIG
07:30
M
22 °C 10 km+ 1.600 ft 270° 270° 7 kt METAR LFBA 130530Z AUTO 27007KT 9999 OVC016 22/19 Q1012 NOSIG
07:00
M
22 °C 10 km+ 1.600 ft 290° 290° 6 kt METAR LFBA 130500Z AUTO 29006KT 260V320 9999 OVC016 22/19 Q1012
06:30
M
22 °C 10 km+ 1.600 ft 280° 280° 6 kt METAR LFBA 130430Z AUTO 28006KT 9999 OVC016 22/19 Q1012
06:00
M
22 °C 10 km+ 1.500 ft 280° 280° 6 kt METAR LFBA 130400Z AUTO 28006KT 9999 OVC015 22/19 Q1012
05:30
M
22 °C 10 km+ 1.500 ft 290° 290° 7 kt METAR LFBA 130330Z AUTO 29007KT 9999 OVC015 22/19 Q1012
05:00
M
22 °C 10 km+ 1.500 ft 280° 280° 6 kt METAR LFBA 130300Z AUTO 28006KT 9999 OVC015 22/19 Q1013
04:30
M
22 °C 10 km+ 1.500 ft 280° 280° 7 kt METAR LFBA 130230Z AUTO 28007KT 250V310 9999 OVC015 22/19 Q1013
04:00
M
22 °C 10 km+ 1.500 ft 290° 290° 7 kt METAR LFBA 130200Z AUTO 29007KT 9999 BKN015 22/19 Q1012
03:30
V
22 °C 10 km+ - 280° 280° 6 kt METAR LFBA 130130Z AUTO 28006KT 9999 SCT014 22/19 Q1012
03:00
V
22 °C 10 km+ - 280° 280° 6 kt METAR LFBA 130100Z AUTO 28006KT 9999 FEW015 22/19 Q1012
02:30
V
23 °C 10 km+ - 280° 280° 8 kt METAR LFBA 130030Z AUTO 28008KT CAVOK 23/19 Q1012
02:00
V
24 °C 10 km+ - 270° 270° 8 kt METAR LFBA 130000Z AUTO 27008KT CAVOK 24/19 Q1012
01:30
V
25 °C 10 km+ - 270° 270° 11 kt METAR LFBA 122330Z AUTO 27011KT CAVOK 25/18 Q1012
01:00
V
26 °C 10 km+ - 280° 280° 10 kt METAR LFBA 122300Z AUTO 28010KT CAVOK 26/16 Q1012
00:30
V
28 °C 10 km+ - 270° 270° 10 kt METAR LFBA 122230Z AUTO 27010KT CAVOK 28/16 Q1012
00:00
V
29 °C 10 km+ - 290° 290° 9 kt METAR LFBA 122200Z AUTO 29009KT CAVOK 29/12 Q1012

12 août 2022

Temps Code Temps Temp. Vue Base cloud Vent METAR/SPECI
23:30
V
30 °C 10 km+ - 280° 280° 11 kt METAR LFBA 122130Z AUTO 28011KT CAVOK 30/13 Q1011
23:00
V
31 °C 10 km+ - 290° 290° 11 kt METAR LFBA 122100Z AUTO 29011KT CAVOK 31/16 Q1011
22:30
V
31 °C 10 km+ - 290° 290° 7 kt METAR LFBA 122030Z AUTO 29007KT CAVOK 31/17 Q1010
22:00
V
32 °C 10 km+ - 280° 280° 5 kt METAR LFBA 122000Z AUTO 28005KT CAVOK 32/17 Q1010 NOSIG
21:30
I
32 °C 2,4 km - 280° 280° 2 kt METAR LFBA 121930Z AUTO 28002KT 9999 2400 NSC 32/17 Q1010 NOSIG
21:00
V
35 °C 10 km+ - 260° 260° 4 kt METAR LFBA 121900Z AUTO 26004KT CAVOK 35/16 Q1009 NOSIG
20:30
V
36 °C 10 km+ - 310° 310° 4 kt METAR LFBA 121830Z AUTO 31004KT CAVOK 36/16 Q1009 NOSIG
20:00
V
37 °C 10 km+ - 320° 320° 5 kt METAR LFBA 121800Z AUTO 32005KT 290V350 CAVOK 37/15 Q1009 NOSIG
19:30
V
38 °C 10 km+ - 310° 310° 5 kt METAR LFBA 121730Z AUTO 31005KT 270V330 CAVOK 38/15 Q1009 NOSIG
19:00
V
39 °C 10 km+ - 320° 320° 5 kt METAR LFBA 121700Z AUTO 32005KT 270V350 CAVOK 39/15 Q1009 NOSIG
18:30
V
39 °C 10 km+ - 320° 320° 5 kt METAR LFBA 121630Z AUTO 32005KT 280V360 CAVOK 39/15 Q1009 NOSIG
18:00
V
39 °C 10 km+ - 360° 360° 5 kt METAR LFBA 121600Z AUTO 36005KT 300V050 CAVOK 39/14 Q1009 NOSIG
17:30
V
39 °C 10 km+ - 340° 340° 6 kt METAR LFBA 121530Z AUTO 34006KT 310V020 CAVOK 39/15 Q1010 NOSIG
17:00
V
39 °C 10 km+ - 340° 340° 8 kt METAR LFBA 121500Z AUTO 34008KT 300V020 CAVOK 39/14 Q1010 NOSIG
16:30
V
39 °C 10 km+ - 330° 330° 7 kt METAR LFBA 121430Z AUTO 33007KT 290V360 CAVOK 39/16 Q1010 NOSIG
16:00
V
38 °C 10 km+ - 320° 320° 7 kt METAR LFBA 121400Z AUTO 32007KT 280V020 CAVOK 38/17 Q1011 NOSIG
15:30
V
38 °C 9 km - 330° 330° 5 kt METAR LFBA 121330Z AUTO 33005KT 260V010 9000 NSC 38/18 Q1011 NOSIG
15:00
V
38 °C 9 km - 320° 320° 9 kt METAR LFBA 121300Z AUTO 32009KT 290V350 9000 NSC 38/18 Q1011 NOSIG
14:30
V
37 °C 10 km+ - 270° 270° 6 kt METAR LFBA 121230Z AUTO 27006KT 220V330 CAVOK 37/19 Q1011 NOSIG
14:00
V
36 °C 10 km+ - Var Var 6 kt METAR LFBA 121200Z AUTO VRB06KT CAVOK 36/19 Q1011 NOSIG
13:30
V
36 °C 10 km+ - Var Var 5 kt METAR LFBA 121130Z AUTO VRB05KT CAVOK 36/19 Q1012 NOSIG
13:00
I
35 °C 3,9 km - Var Var 4 kt METAR LFBA 121100Z AUTO VRB04KT 9999 3900 NSC 35/19 Q1012 NOSIG
12:30
V
34 °C 10 km+ - 230° 230° 6 kt METAR LFBA 121030Z AUTO 23006KT 180V270 CAVOK 34/18 Q1012 NOSIG
12:00
V
33 °C 10 km+ - 210° 210° 5 kt METAR LFBA 121000Z AUTO 21005KT 150V270 CAVOK 33/18 Q1013 NOSIG
11:30
V
32 °C 10 km+ - 230° 230° 4 kt METAR LFBA 120930Z AUTO 23004KT 170V290 CAVOK 32/18 Q1013 NOSIG
11:00
V
31 °C 10 km+ - Var Var 2 kt METAR LFBA 120900Z AUTO VRB02KT CAVOK 31/19 Q1013 NOSIG
10:30
V
30 °C 10 km+ - Var Var 3 kt METAR LFBA 120830Z AUTO VRB03KT CAVOK 30/19 Q1013 NOSIG
10:00
V
28 °C 10 km+ - 250° 250° 4 kt METAR LFBA 120800Z AUTO 25004KT 200V320 CAVOK 28/19 Q1013 NOSIG
09:30
V
27 °C 10 km+ - 230° 230° 4 kt METAR LFBA 120730Z AUTO 23004KT 180V270 CAVOK 27/18 Q1013 NOSIG
09:00
V
26 °C 10 km+ - Var Var 2 kt METAR LFBA 120700Z AUTO VRB02KT CAVOK 26/19 Q1013 NOSIG
08:30
V
24 °C 10 km+ - 090° 090° 4 kt METAR LFBA 120630Z AUTO 09004KT CAVOK 24/20 Q1012 BECMG 29010KT
08:00
V
23 °C 10 km+ - 100° 100° 1 kt METAR LFBA 120600Z AUTO 10001KT CAVOK 23/20 Q1012 BECMG 29010KT
07:30
V
21 °C 10 km+ - 130° 130° 3 kt METAR LFBA 120530Z AUTO 13003KT CAVOK 21/19 Q1012
07:00
V
21 °C 10 km+ - 120° 120° 3 kt METAR LFBA 120500Z AUTO 12003KT CAVOK 21/20 Q1012
06:30
V
22 °C 10 km+ - 100° 100° 3 kt METAR LFBA 120430Z AUTO 10003KT CAVOK 22/19 Q1012
06:00
V
22 °C 10 km+ - 110° 110° 4 kt METAR LFBA 120400Z AUTO 11004KT CAVOK 22/19 Q1012
05:30
V
22 °C 10 km+ - 110° 110° 5 kt METAR LFBA 120330Z AUTO 11005KT CAVOK 22/19 Q1012
05:00
V
22 °C 10 km+ - 110° 110° 4 kt METAR LFBA 120300Z AUTO 11004KT CAVOK 22/19 Q1012
04:30
V
22 °C 10 km+ - 120° 120° 5 kt METAR LFBA 120230Z AUTO 12005KT CAVOK 22/18 Q1012
04:00
V
23 °C 10 km+ - 100° 100° 3 kt METAR LFBA 120200Z AUTO 10003KT CAVOK 23/19 Q1012
03:30
V
23 °C 10 km+ - 110° 110° 4 kt METAR LFBA 120130Z AUTO 11004KT CAVOK 23/18 Q1012
03:00
V
24 °C 10 km+ - 100° 100° 3 kt METAR LFBA 120100Z AUTO 10003KT CAVOK 24/18 Q1012
02:30
V
24 °C 10 km+ - Var Var 3 kt METAR LFBA 120030Z AUTO VRB03KT CAVOK 24/18 Q1012
Données plus anciennes

Nous et des tiers suivons ton comportement sur Internet sur notre site Web à l'aide de cookies. Si tu continues, nous supposons que tu acceptes notre politique en matière de cookies. Apprendre plus